sensor_id;sensor_type;location;lat;lon;timestamp;P1;durP1;ratioP1;P2;durP2;ratioP2
70457;SDS011;57919;56.194;95.716;2023-06-22T00:04:42;19.13;;;11.63;;
70457;SDS011;57919;56.194;95.716;2023-06-22T00:14:44;20.70;;;11.35;;
70457;SDS011;57919;56.194;95.716;2023-06-22T00:24:46;23.77;;;12.90;;
70457;SDS011;57919;56.194;95.716;2023-06-22T00:34:48;20.70;;;11.53;;
70457;SDS011;57919;56.194;95.716;2023-06-22T00:44:51;22.57;;;12.43;;
70457;SDS011;57919;56.194;95.716;2023-06-22T00:54:53;19.77;;;12.80;;
70457;SDS011;57919;56.194;95.716;2023-06-22T01:04:56;21.77;;;12.07;;
70457;SDS011;57919;56.194;95.716;2023-06-22T01:15:00;18.63;;;12.97;;
70457;SDS011;57919;56.194;95.716;2023-06-22T01:25:15;20.80;;;14.70;;
70457;SDS011;57919;56.194;95.716;2023-06-22T01:35:22;21.60;;;14.93;;
70457;SDS011;57919;56.194;95.716;2023-06-22T01:45:25;22.80;;;14.83;;
70457;SDS011;57919;56.194;95.716;2023-06-22T01:55:28;29.58;;;17.23;;
70457;SDS011;57919;56.194;95.716;2023-06-22T02:05:34;25.83;;;17.60;;
70457;SDS011;57919;56.194;95.716;2023-06-22T02:15:40;30.77;;;17.80;;
70457;SDS011;57919;56.194;95.716;2023-06-22T02:25:42;33.90;;;18.97;;
70457;SDS011;57919;56.194;95.716;2023-06-22T02:35:46;31.70;;;16.77;;
70457;SDS011;57919;56.194;95.716;2023-06-22T02:45:50;26.95;;;17.00;;
70457;SDS011;57919;56.194;95.716;2023-06-22T02:55:52;21.93;;;13.07;;
70457;SDS011;57919;56.194;95.716;2023-06-22T03:05:54;31.57;;;14.10;;
70457;SDS011;57919;56.194;95.716;2023-06-22T03:15:58;26.13;;;15.03;;
70457;SDS011;57919;56.194;95.716;2023-06-22T03:26:01;31.07;;;17.47;;
70457;SDS011;57919;56.194;95.716;2023-06-22T03:36:04;22.35;;;13.30;;
70457;SDS011;57919;56.194;95.716;2023-06-22T03:46:06;19.83;;;14.50;;
70457;SDS011;57919;56.194;95.716;2023-06-22T03:56:08;23.80;;;14.97;;
70457;SDS011;57919;56.194;95.716;2023-06-22T04:06:10;24.77;;;14.33;;
70457;SDS011;57919;56.194;95.716;2023-06-22T04:16:12;24.23;;;13.80;;
70457;SDS011;57919;56.194;95.716;2023-06-22T04:26:14;26.40;;;13.68;;
70457;SDS011;57919;56.194;95.716;2023-06-22T04:36:15;21.90;;;12.40;;
70457;SDS011;57919;56.194;95.716;2023-06-22T04:46:17;21.53;;;12.03;;
70457;SDS011;57919;56.194;95.716;2023-06-22T04:56:19;21.97;;;13.10;;
70457;SDS011;57919;56.194;95.716;2023-06-22T05:06:23;21.77;;;12.43;;
70457;SDS011;57919;56.194;95.716;2023-06-22T05:16:28;14.52;;;9.18;;
70457;SDS011;57919;56.194;95.716;2023-06-22T05:26:30;16.30;;;9.10;;
70457;SDS011;57919;56.194;95.716;2023-06-22T05:36:34;24.93;;;13.50;;
70457;SDS011;57919;56.194;95.716;2023-06-22T05:46:35;16.30;;;9.10;;
70457;SDS011;57919;56.194;95.716;2023-06-22T05:56:37;15.90;;;7.33;;
70457;SDS011;57919;56.194;95.716;2023-06-22T06:06:39;14.55;;;7.95;;
70457;SDS011;57919;56.194;95.716;2023-06-22T06:16:41;13.43;;;8.13;;
70457;SDS011;57919;56.194;95.716;2023-06-22T06:26:43;11.07;;;6.03;;
70457;SDS011;57919;56.194;95.716;2023-06-22T06:36:45;11.47;;;6.93;;
70457;SDS011;57919;56.194;95.716;2023-06-22T06:46:47;11.43;;;7.27;;
70457;SDS011;57919;56.194;95.716;2023-06-22T06:56:49;12.32;;;7.07;;
70457;SDS011;57919;56.194;95.716;2023-06-22T07:06:51;13.30;;;6.77;;
70457;SDS011;57919;56.194;95.716;2023-06-22T07:16:53;12.07;;;6.63;;
70457;SDS011;57919;56.194;95.716;2023-06-22T07:26:54;9.67;;;5.47;;
70457;SDS011;57919;56.194;95.716;2023-06-22T07:36:58;11.63;;;5.83;;
70457;SDS011;57919;56.194;95.716;2023-06-22T07:47:00;8.50;;;5.57;;
70457;SDS011;57919;56.194;95.716;2023-06-22T07:57:02;12.10;;;6.07;;
70457;SDS011;57919;56.194;95.716;2023-06-22T08:07:05;16.07;;;6.00;;
70457;SDS011;57919;56.194;95.716;2023-06-22T08:17:07;9.73;;;5.43;;
70457;SDS011;57919;56.194;95.716;2023-06-22T08:27:09;8.77;;;4.43;;
70457;SDS011;57919;56.194;95.716;2023-06-22T08:37:14;9.45;;;5.28;;
70457;SDS011;57919;56.194;95.716;2023-06-22T08:47:16;10.97;;;5.30;;
70457;SDS011;57919;56.194;95.716;2023-06-22T08:57:18;9.57;;;4.63;;
70457;SDS011;57919;56.194;95.716;2023-06-22T09:07:20;14.17;;;4.90;;
70457;SDS011;57919;56.194;95.716;2023-06-22T09:17:24;9.43;;;4.70;;
70457;SDS011;57919;56.194;95.716;2023-06-22T09:27:26;11.18;;;5.28;;
70457;SDS011;57919;56.194;95.716;2023-06-22T09:37:28;9.97;;;4.30;;
70457;SDS011;57919;56.194;95.716;2023-06-22T09:47:30;8.77;;;5.07;;
70457;SDS011;57919;56.194;95.716;2023-06-22T09:57:32;9.40;;;4.90;;
70457;SDS011;57919;56.194;95.716;2023-06-22T10:07:36;11.17;;;5.40;;
70457;SDS011;57919;56.194;95.716;2023-06-22T10:17:43;13.45;;;5.07;;
70457;SDS011;57919;56.194;95.716;2023-06-22T10:27:45;9.80;;;6.33;;
70457;SDS011;57919;56.194;95.716;2023-06-22T10:37:48;10.10;;;5.67;;
70457;SDS011;57919;56.194;95.716;2023-06-22T10:47:50;11.43;;;6.70;;
70457;SDS011;57919;56.194;95.716;2023-06-22T10:57:52;14.63;;;10.90;;
70457;SDS011;57919;56.194;95.716;2023-06-22T11:07:54;10.05;;;6.55;;
70457;SDS011;57919;56.194;95.716;2023-06-22T11:17:56;32.37;;;23.63;;
70457;SDS011;57919;56.194;95.716;2023-06-22T11:27:58;18.10;;;10.00;;
70457;SDS011;57919;56.194;95.716;2023-06-22T11:38:00;12.93;;;6.97;;
70457;SDS011;57919;56.194;95.716;2023-06-22T11:48:02;11.70;;;6.73;;
70457;SDS011;57919;56.194;95.716;2023-06-22T11:58:04;14.85;;;7.32;;
70457;SDS011;57919;56.194;95.716;2023-06-22T12:08:07;24.40;;;12.73;;
70457;SDS011;57919;56.194;95.716;2023-06-22T12:18:10;26.03;;;7.20;;
70457;SDS011;57919;56.194;95.716;2023-06-22T12:28:12;10.33;;;4.70;;
70457;SDS011;57919;56.194;95.716;2023-06-22T12:38:15;14.70;;;6.80;;
70457;SDS011;57919;56.194;95.716;2023-06-22T12:48:17;14.02;;;7.85;;
70457;SDS011;57919;56.194;95.716;2023-06-22T12:58:19;15.07;;;7.03;;
70457;SDS011;57919;56.194;95.716;2023-06-22T13:08:21;16.80;;;7.53;;
70457;SDS011;57919;56.194;95.716;2023-06-22T13:18:23;24.23;;;10.77;;
70457;SDS011;57919;56.194;95.716;2023-06-22T13:28:25;15.97;;;9.30;;
70457;SDS011;57919;56.194;95.716;2023-06-22T13:38:27;15.93;;;8.82;;
70457;SDS011;57919;56.194;95.716;2023-06-22T13:48:29;13.67;;;8.90;;
70457;SDS011;57919;56.194;95.716;2023-06-22T13:58:30;20.30;;;9.80;;
70457;SDS011;57919;56.194;95.716;2023-06-22T14:08:32;19.83;;;9.73;;
70457;SDS011;57919;56.194;95.716;2023-06-22T14:18:34;27.73;;;14.20;;
70457;SDS011;57919;56.194;95.716;2023-06-22T14:28:36;34.53;;;17.27;;
70457;SDS011;57919;56.194;95.716;2023-06-22T14:38:38;24.60;;;13.10;;
70457;SDS011;57919;56.194;95.716;2023-06-22T14:48:40;31.43;;;14.47;;
70457;SDS011;57919;56.194;95.716;2023-06-22T14:58:42;23.67;;;14.57;;
70457;SDS011;57919;56.194;95.716;2023-06-22T15:08:47;28.57;;;16.47;;
70457;SDS011;57919;56.194;95.716;2023-06-22T15:18:50;40.17;;;22.17;;
70457;SDS011;57919;56.194;95.716;2023-06-22T15:28:52;44.50;;;20.33;;
70457;SDS011;57919;56.194;95.716;2023-06-22T15:38:54;46.40;;;26.43;;
70457;SDS011;57919;56.194;95.716;2023-06-22T15:48:56;42.73;;;25.20;;
70457;SDS011;57919;56.194;95.716;2023-06-22T15:58:58;28.17;;;17.23;;
70457;SDS011;57919;56.194;95.716;2023-06-22T16:09:00;25.42;;;13.10;;
70457;SDS011;57919;56.194;95.716;2023-06-22T16:19:02;21.57;;;11.40;;
70457;SDS011;57919;56.194;95.716;2023-06-22T16:29:04;18.73;;;10.40;;
70457;SDS011;57919;56.194;95.716;2023-06-22T16:39:06;27.03;;;14.20;;
70457;SDS011;57919;56.194;95.716;2023-06-22T16:49:07;23.80;;;11.80;;
70457;SDS011;57919;56.194;95.716;2023-06-22T16:59:09;21.15;;;10.70;;
70457;SDS011;57919;56.194;95.716;2023-06-22T17:09:12;17.77;;;10.57;;
70457;SDS011;57919;56.194;95.716;2023-06-22T17:19:15;18.17;;;9.90;;
70457;SDS011;57919;56.194;95.716;2023-06-22T17:29:17;19.63;;;10.90;;
70457;SDS011;57919;56.194;95.716;2023-06-22T17:39:21;16.50;;;7.90;;
70457;SDS011;57919;56.194;95.716;2023-06-22T17:49:27;19.40;;;7.80;;
70457;SDS011;57919;56.194;95.716;2023-06-22T17:59:31;18.93;;;7.60;;
70457;SDS011;57919;56.194;95.716;2023-06-22T18:09:33;15.67;;;7.43;;
70457;SDS011;57919;56.194;95.716;2023-06-22T18:19:36;14.67;;;7.17;;
70457;SDS011;57919;56.194;95.716;2023-06-22T18:29:39;15.83;;;7.37;;
70457;SDS011;57919;56.194;95.716;2023-06-22T18:39:43;12.20;;;5.95;;
70457;SDS011;57919;56.194;95.716;2023-06-22T18:49:47;12.90;;;6.03;;
70457;SDS011;57919;56.194;95.716;2023-06-22T19:10:41;12.63;;;5.07;;
70457;SDS011;57919;56.194;95.716;2023-06-22T19:20:31;17.33;;;7.20;;
70457;SDS011;57919;56.194;95.716;2023-06-22T19:30:36;18.52;;;8.30;;
70457;SDS011;57919;56.194;95.716;2023-06-22T19:40:39;11.50;;;6.13;;
70457;SDS011;57919;56.194;95.716;2023-06-22T19:50:41;10.40;;;5.00;;
70457;SDS011;57919;56.194;95.716;2023-06-22T20:00:44;8.80;;;4.57;;
70457;SDS011;57919;56.194;95.716;2023-06-22T20:10:52;13.50;;;4.47;;
70457;SDS011;57919;56.194;95.716;2023-06-22T20:20:59;10.75;;;5.35;;
70457;SDS011;57919;56.194;95.716;2023-06-22T20:31:02;16.77;;;7.30;;
70457;SDS011;57919;56.194;95.716;2023-06-22T20:41:06;22.60;;;8.10;;
70457;SDS011;57919;56.194;95.716;2023-06-22T20:51:08;15.27;;;5.87;;
70457;SDS011;57919;56.194;95.716;2023-06-22T21:01:09;9.70;;;5.63;;
70457;SDS011;57919;56.194;95.716;2023-06-22T21:11:18;15.13;;;5.63;;
70457;SDS011;57919;56.194;95.716;2023-06-22T21:21:21;10.47;;;4.73;;
70457;SDS011;57919;56.194;95.716;2023-06-22T21:31:23;14.57;;;5.73;;
70457;SDS011;57919;56.194;95.716;2023-06-22T21:41:25;11.63;;;5.80;;
70457;SDS011;57919;56.194;95.716;2023-06-22T21:51:27;12.73;;;6.07;;
70457;SDS011;57919;56.194;95.716;2023-06-22T22:01:29;13.25;;;5.60;;
70457;SDS011;57919;56.194;95.716;2023-06-22T22:11:31;15.37;;;6.23;;
70457;SDS011;57919;56.194;95.716;2023-06-22T22:21:33;12.63;;;5.50;;
70457;SDS011;57919;56.194;95.716;2023-06-22T22:31:35;15.53;;;5.67;;
70457;SDS011;57919;56.194;95.716;2023-06-22T22:41:40;13.17;;;5.40;;
70457;SDS011;57919;56.194;95.716;2023-06-22T22:51:42;12.05;;;5.95;;
70457;SDS011;57919;56.194;95.716;2023-06-22T23:01:44;11.37;;;5.83;;
70457;SDS011;57919;56.194;95.716;2023-06-22T23:11:46;9.43;;;4.90;;
70457;SDS011;57919;56.194;95.716;2023-06-22T23:21:49;14.30;;;6.17;;
70457;SDS011;57919;56.194;95.716;2023-06-22T23:31:54;11.67;;;5.40;;
70457;SDS011;57919;56.194;95.716;2023-06-22T23:41:56;10.25;;;4.60;;
70457;SDS011;57919;56.194;95.716;2023-06-22T23:52:01;10.60;;;5.27;;
